createdAt,value
2022-12-26T00:01:06.242Z,12.35
2022-12-26T00:03:33.622Z,12.63
2022-12-26T00:06:00.681Z,12.25
2022-12-26T00:08:27.690Z,12.85
2022-12-26T00:10:54.637Z,12.35
2022-12-26T00:13:39.875Z,13.35
2022-12-26T00:16:13.767Z,13.80
2022-12-26T00:18:41.070Z,14.52
2022-12-26T00:21:10.216Z,14.68
2022-12-26T00:23:38.056Z,13.65
2022-12-26T00:26:09.667Z,14.82
2022-12-26T00:28:37.375Z,14.18
2022-12-26T00:31:13.211Z,14.45
2022-12-26T00:33:40.426Z,15.98
2022-12-26T00:36:14.367Z,14.95
2022-12-26T00:38:42.852Z,15.20
2022-12-26T00:41:11.006Z,15.63
2022-12-26T00:43:38.024Z,15.18
2022-12-26T00:46:05.859Z,14.38
2022-12-26T00:48:33.011Z,15.20
2022-12-26T00:51:00.819Z,15.38
2022-12-26T00:53:28.624Z,15.50
2022-12-26T00:55:55.888Z,14.43
2022-12-26T00:58:23.667Z,14.38
2022-12-26T01:00:50.936Z,13.48
2022-12-26T01:03:19.036Z,14.93
2022-12-26T01:05:48.958Z,14.02
2022-12-26T01:08:22.616Z,13.40
2022-12-26T01:13:18.030Z,13.75
2022-12-26T01:15:53.118Z,12.75
2022-12-26T01:18:21.236Z,13.50
2022-12-26T01:20:48.919Z,13.20
2022-12-26T01:23:16.366Z,12.50
2022-12-26T01:26:15.865Z,13.35
2022-12-26T01:28:30.740Z,12.05
2022-12-26T01:31:02.122Z,13.38
2022-12-26T01:33:29.035Z,12.75
2022-12-26T01:35:55.898Z,11.93
2022-12-26T01:38:22.908Z,12.93
2022-12-26T01:41:10.221Z,11.20
2022-12-26T01:44:26.506Z,11.95
2022-12-26T01:46:53.934Z,12.53
2022-12-26T01:49:36.658Z,12.63
2022-12-26T01:52:12.040Z,12.43
2022-12-26T01:57:42.048Z,12.80
2022-12-26T02:00:10.430Z,12.48
2022-12-26T02:03:00.222Z,13.15
2022-12-26T02:05:35.882Z,12.38
2022-12-26T02:08:10.207Z,12.75
2022-12-26T02:10:46.600Z,11.95
2022-12-26T02:13:14.117Z,11.95
2022-12-26T02:15:41.961Z,11.48
2022-12-26T02:18:08.948Z,10.80
2022-12-26T02:20:53.940Z,10.68
2022-12-26T02:23:55.866Z,11.10
2022-12-26T02:26:39.903Z,10.15
2022-12-26T02:29:43.437Z,10.63
2022-12-26T02:32:28.453Z,10.50
2022-12-26T02:35:15.832Z,9.73
2022-12-26T02:38:24.850Z,9.73
2022-12-26T02:41:11.010Z,8.38
2022-12-26T02:44:24.685Z,8.70
2022-12-26T02:47:03.696Z,8.25
2022-12-26T02:50:04.539Z,7.85
2022-12-26T02:53:03.969Z,7.68
2022-12-26T02:55:52.877Z,7.60
2022-12-26T02:58:43.169Z,6.80
2022-12-26T03:01:46.256Z,6.70
2022-12-26T03:04:35.012Z,6.53
2022-12-26T03:07:23.985Z,5.45
2022-12-26T03:10:11.883Z,5.38
2022-12-26T03:13:12.721Z,5.13
2022-12-26T03:16:24.599Z,4.60
2022-12-26T03:18:58.973Z,4.88
2022-12-26T03:21:32.933Z,4.47
2022-12-26T03:24:00.083Z,5.00
2022-12-26T03:26:41.413Z,4.70
2022-12-26T03:29:36.873Z,5.05
2022-12-26T03:32:07.887Z,4.73
2022-12-26T03:34:40.923Z,4.47
2022-12-26T03:37:47.747Z,4.60
2022-12-26T03:40:42.904Z,4.57
2022-12-26T03:44:13.361Z,4.65
2022-12-26T03:47:35.889Z,4.85
2022-12-26T03:50:29.542Z,5.07
2022-12-26T03:53:41.467Z,4.68
2022-12-26T03:56:49.527Z,4.95
2022-12-26T03:59:44.378Z,4.95
2022-12-26T04:02:32.415Z,4.95
2022-12-26T04:05:20.331Z,5.05
2022-12-26T04:08:18.062Z,4.93
2022-12-26T04:11:13.490Z,5.30
2022-12-26T04:14:07.921Z,5.20
2022-12-26T04:16:59.188Z,5.38
2022-12-26T04:19:44.827Z,6.03
2022-12-26T04:22:48.640Z,5.63
2022-12-26T04:25:50.587Z,5.53
2022-12-26T04:28:38.754Z,5.25
2022-12-26T04:31:46.668Z,5.43
2022-12-26T04:34:42.205Z,5.60
2022-12-26T04:37:36.732Z,5.23
2022-12-26T04:40:25.946Z,4.70
2022-12-26T04:43:48.857Z,5.03
2022-12-26T04:46:00.700Z,4.95
2022-12-26T04:48:46.233Z,4.80
2022-12-26T04:51:13.131Z,5.35
2022-12-26T04:53:40.017Z,4.45
2022-12-26T04:56:07.211Z,4.85
2022-12-26T04:58:34.037Z,4.90
2022-12-26T05:01:19.482Z,4.95
2022-12-26T05:04:05.159Z,5.18
2022-12-26T05:06:50.559Z,4.80
2022-12-26T05:09:34.953Z,5.15
2022-12-26T05:12:07.684Z,4.32
2022-12-26T05:14:38.536Z,4.43
2022-12-26T05:17:26.078Z,4.85
2022-12-26T05:20:11.806Z,4.63
2022-12-26T05:25:47.466Z,4.88
2022-12-26T05:28:35.701Z,4.57
2022-12-26T05:31:02.992Z,5.00
2022-12-26T05:33:49.031Z,4.75
2022-12-26T05:36:18.686Z,5.22
2022-12-26T05:38:45.629Z,4.50
2022-12-26T05:41:12.842Z,4.75
2022-12-26T05:43:39.646Z,4.70
2022-12-26T05:46:06.689Z,4.25
2022-12-26T05:48:33.615Z,4.40
2022-12-26T05:51:01.601Z,4.25
2022-12-26T05:53:29.250Z,4.80
2022-12-26T05:56:01.589Z,4.53
2022-12-26T05:58:28.742Z,3.85
2022-12-26T06:01:14.318Z,4.38
2022-12-26T06:03:45.661Z,4.68
2022-12-26T06:06:12.930Z,4.93
2022-12-26T06:08:43.004Z,4.70
2022-12-26T06:11:13.054Z,4.53
2022-12-26T06:13:41.183Z,4.70
2022-12-26T06:16:13.390Z,4.47
2022-12-26T06:18:40.948Z,5.18
2022-12-26T06:21:15.118Z,4.70
2022-12-26T06:23:42.584Z,4.93
2022-12-26T06:26:10.362Z,5.25
2022-12-26T06:28:37.919Z,4.55
2022-12-26T06:31:07.842Z,4.53
2022-12-26T06:33:34.864Z,4.57
2022-12-26T06:36:13.595Z,3.92
2022-12-26T06:38:40.932Z,4.28
2022-12-26T06:41:10.284Z,4.38
2022-12-26T06:43:38.448Z,3.72
2022-12-26T06:46:07.633Z,3.75
2022-12-26T06:48:39.570Z,4.10
2022-12-26T06:51:17.882Z,3.60
2022-12-26T06:53:45.476Z,3.38
2022-12-26T06:56:24.739Z,4.28
2022-12-26T06:59:03.399Z,3.67
2022-12-26T07:01:32.683Z,3.55
2022-12-26T07:04:00.254Z,3.60
2022-12-26T07:06:36.294Z,3.42
2022-12-26T07:09:06.700Z,2.95
2022-12-26T07:11:36.666Z,3.17
2022-12-26T07:14:04.458Z,3.47
2022-12-26T07:16:34.022Z,3.42
2022-12-26T07:19:01.097Z,2.95
2022-12-26T07:21:28.564Z,3.33
2022-12-26T07:23:55.982Z,3.17
2022-12-26T07:26:24.405Z,3.50
2022-12-26T07:28:55.890Z,3.03
2022-12-26T07:31:23.761Z,3.22
2022-12-26T07:33:52.102Z,3.17
2022-12-26T07:36:19.378Z,3.45
2022-12-26T07:38:46.841Z,3.20
2022-12-26T07:41:33.453Z,3.58
2022-12-26T07:44:00.402Z,3.42
2022-12-26T07:46:27.541Z,2.95
2022-12-26T07:48:54.550Z,3.72
2022-12-26T07:51:21.643Z,3.42
2022-12-26T07:53:49.026Z,3.10
2022-12-26T07:56:16.500Z,2.58
2022-12-26T07:58:43.479Z,3.22
2022-12-26T08:01:10.479Z,3.92
2022-12-26T08:03:38.606Z,3.10
2022-12-26T08:06:05.857Z,3.42
2022-12-26T08:08:32.769Z,3.20
2022-12-26T08:11:07.868Z,3.17
2022-12-26T08:13:35.579Z,2.65
2022-12-26T08:16:07.496Z,2.33
2022-12-26T08:18:35.384Z,2.65
2022-12-26T08:21:02.201Z,2.75
2022-12-26T08:23:29.134Z,2.40
2022-12-26T08:25:56.024Z,3.65
2022-12-26T08:28:23.475Z,2.70
2022-12-26T08:30:50.535Z,2.72
2022-12-26T08:33:17.670Z,2.58
2022-12-26T08:35:44.978Z,3.20
2022-12-26T08:38:12.170Z,2.58
2022-12-26T08:40:43.557Z,3.10
2022-12-26T08:46:01.429Z,2.80
2022-12-26T08:48:29.139Z,2.10
2022-12-26T08:50:57.870Z,2.22
2022-12-26T08:53:25.075Z,2.45
2022-12-26T08:55:52.575Z,2.80
2022-12-26T08:58:19.631Z,2.40
2022-12-26T09:00:50.431Z,2.25
2022-12-26T09:03:22.270Z,2.65
2022-12-26T09:05:49.211Z,2.22
2022-12-26T09:08:16.135Z,1.98
2022-12-26T09:10:42.985Z,1.45
2022-12-26T09:13:10.305Z,2.42
2022-12-26T09:15:38.265Z,2.25
2022-12-26T09:18:05.248Z,2.28
2022-12-26T09:20:33.870Z,2.58
2022-12-26T09:23:00.798Z,1.75
2022-12-26T09:25:27.898Z,1.30
2022-12-26T09:27:59.111Z,2.95
2022-12-26T09:30:26.344Z,2.10
2022-12-26T09:32:53.972Z,2.22
2022-12-26T09:35:21.065Z,1.98
2022-12-26T09:37:47.908Z,1.80
2022-12-26T09:40:22.632Z,2.40
2022-12-26T09:43:24.382Z,1.83
2022-12-26T09:46:07.120Z,1.85
2022-12-26T09:48:44.810Z,1.50
2022-12-26T09:51:11.888Z,1.92
2022-12-26T09:53:44.007Z,1.90
2022-12-26T09:56:36.888Z,1.80
2022-12-26T09:59:11.337Z,1.80
2022-12-26T10:01:38.448Z,1.95
2022-12-26T10:04:14.573Z,2.15
2022-12-26T10:06:48.549Z,2.40
2022-12-26T10:09:18.405Z,2.55
2022-12-26T10:12:06.743Z,1.90
2022-12-26T10:15:01.361Z,1.92
2022-12-26T10:17:31.293Z,1.63
2022-12-26T10:20:01.179Z,1.88
2022-12-26T10:22:46.658Z,2.00
2022-12-26T10:25:18.800Z,2.33
2022-12-26T10:27:49.313Z,1.95
2022-12-26T10:30:25.410Z,2.00
2022-12-26T10:32:57.036Z,2.13
2022-12-26T10:35:36.086Z,1.75
2022-12-26T10:38:33.745Z,1.80
2022-12-26T10:41:08.162Z,2.25
2022-12-26T10:43:35.660Z,1.70
2022-12-26T10:46:05.665Z,2.10
2022-12-26T10:48:33.180Z,1.83
2022-12-26T10:51:00.098Z,2.22
2022-12-26T10:53:27.119Z,1.85
2022-12-26T10:55:54.245Z,1.67
2022-12-26T10:58:33.978Z,2.40
2022-12-26T11:01:29.052Z,1.50
2022-12-26T11:03:58.800Z,1.85
2022-12-26T11:06:39.629Z,1.90
2022-12-26T11:09:22.471Z,1.60
2022-12-26T11:11:51.627Z,1.92
2022-12-26T11:14:38.740Z,1.63
2022-12-26T11:17:13.196Z,2.40
2022-12-26T11:19:42.476Z,2.60
2022-12-26T11:22:25.947Z,2.25
2022-12-26T11:25:13.032Z,1.83
2022-12-26T11:27:43.135Z,2.33
2022-12-26T11:30:24.943Z,2.33
2022-12-26T11:33:14.559Z,1.60
2022-12-26T11:36:07.851Z,1.55
2022-12-26T11:39:01.260Z,1.98
2022-12-26T11:41:36.725Z,2.20
2022-12-26T11:44:28.663Z,1.70
2022-12-26T11:47:11.981Z,1.70
2022-12-26T11:49:53.419Z,1.58
2022-12-26T11:52:53.533Z,1.63
2022-12-26T11:55:25.579Z,1.77
2022-12-26T11:58:06.621Z,2.05
2022-12-26T12:00:44.346Z,1.60
2022-12-26T12:03:16.182Z,1.92
2022-12-26T12:05:52.788Z,1.98
2022-12-26T12:08:36.126Z,1.65
2022-12-26T12:11:21.147Z,1.75
2022-12-26T12:14:03.221Z,1.40
2022-12-26T12:16:48.546Z,1.95
2022-12-26T12:19:34.444Z,2.00
2022-12-26T12:22:32.902Z,1.85
2022-12-26T12:25:46.396Z,1.88
2022-12-26T12:28:50.917Z,2.25
2022-12-26T12:31:33.146Z,2.15
2022-12-26T12:34:30.859Z,2.00
2022-12-26T12:37:19.647Z,1.58
2022-12-26T12:40:17.945Z,2.22
2022-12-26T12:42:53.947Z,2.08
2022-12-26T12:45:28.140Z,1.67
2022-12-26T12:48:26.115Z,1.20
2022-12-26T12:51:03.819Z,1.80
2022-12-26T12:53:52.685Z,1.75
2022-12-26T12:56:41.905Z,1.90
2022-12-26T12:59:15.447Z,1.58
2022-12-26T13:01:49.611Z,1.38
2022-12-26T13:04:34.544Z,1.77
2022-12-26T13:07:12.058Z,1.38
2022-12-26T13:09:47.862Z,1.88
2022-12-26T13:12:27.265Z,2.10
2022-12-26T13:15:01.656Z,1.95
2022-12-26T13:17:36.169Z,2.75
2022-12-26T13:20:21.896Z,1.70
2022-12-26T13:23:14.442Z,1.77
2022-12-26T13:25:48.439Z,1.90
2022-12-26T13:28:29.214Z,2.58
2022-12-26T13:30:56.884Z,2.40
2022-12-26T13:33:23.993Z,2.55
2022-12-26T13:35:56.093Z,2.22
2022-12-26T13:38:24.675Z,2.42
2022-12-26T13:41:21.179Z,2.00
2022-12-26T13:44:06.587Z,2.65
2022-12-26T13:46:44.419Z,2.70
2022-12-26T13:49:29.736Z,2.45
2022-12-26T13:51:59.395Z,2.35
2022-12-26T13:54:28.822Z,1.98
2022-12-26T13:57:26.259Z,2.30
2022-12-26T14:00:06.933Z,2.67
2022-12-26T14:03:17.406Z,2.90
2022-12-26T14:06:07.350Z,3.58
2022-12-26T14:08:59.195Z,2.53
2022-12-26T14:11:28.967Z,2.40
2022-12-26T14:14:39.816Z,2.17
2022-12-26T14:17:37.390Z,2.00
2022-12-26T14:20:32.886Z,2.30
2022-12-26T14:23:28.095Z,2.25
2022-12-26T14:26:32.358Z,2.00
2022-12-26T14:29:21.649Z,2.58
2022-12-26T14:31:48.537Z,2.55
2022-12-26T14:34:24.213Z,1.88
2022-12-26T14:37:09.868Z,2.13
2022-12-26T14:39:45.894Z,2.30
2022-12-26T14:42:43.517Z,1.75
2022-12-26T14:45:28.794Z,2.10
2022-12-26T14:47:56.552Z,2.55
2022-12-26T14:50:32.460Z,1.75
2022-12-26T14:53:18.488Z,1.75
2022-12-26T14:56:32.885Z,2.15
2022-12-26T14:59:35.546Z,2.42
2022-12-26T15:02:29.592Z,1.67
2022-12-26T15:05:02.158Z,2.00
2022-12-26T15:07:57.442Z,1.80
2022-12-26T15:10:30.050Z,2.28
2022-12-26T15:13:33.886Z,2.47
2022-12-26T15:16:16.002Z,2.03
2022-12-26T15:18:57.801Z,1.77
2022-12-26T15:21:37.613Z,1.58
2022-12-26T15:25:17.507Z,2.00
2022-12-26T15:27:35.182Z,1.52
2022-12-26T15:30:38.361Z,2.20
2022-12-26T15:33:15.115Z,1.65
2022-12-26T15:35:56.729Z,2.13
2022-12-26T15:38:47.379Z,1.92
2022-12-26T15:41:37.136Z,1.42
2022-12-26T15:44:19.588Z,1.45
2022-12-26T15:46:55.288Z,1.42
2022-12-26T15:49:40.662Z,1.70
2022-12-26T15:52:36.246Z,1.98
2022-12-26T15:55:31.559Z,1.42
2022-12-26T15:58:27.147Z,2.27
2022-12-26T16:00:55.218Z,1.60
2022-12-26T16:03:32.814Z,1.90
2022-12-26T16:06:12.363Z,1.60
2022-12-26T16:09:14.908Z,1.35
2022-12-26T16:12:02.273Z,1.90
2022-12-26T16:14:35.285Z,1.75
2022-12-26T16:17:20.107Z,2.42
2022-12-26T16:19:49.527Z,1.40
2022-12-26T16:22:49.576Z,1.45
2022-12-26T16:25:24.326Z,1.88
2022-12-26T16:27:54.833Z,1.42
2022-12-26T16:30:24.106Z,2.30
2022-12-26T16:32:51.915Z,1.63
2022-12-26T16:35:23.635Z,1.60
2022-12-26T16:37:52.507Z,1.40
2022-12-26T16:40:34.756Z,2.08
2022-12-26T16:43:13.867Z,1.60
2022-12-26T16:45:41.572Z,1.88
2022-12-26T16:48:12.563Z,2.33
2022-12-26T16:50:54.050Z,2.22
2022-12-26T16:53:44.674Z,2.20
2022-12-26T16:56:29.307Z,2.15
2022-12-26T16:59:16.869Z,1.85
2022-12-26T17:02:03.242Z,1.73
2022-12-26T17:07:02.318Z,1.80
2022-12-26T17:09:41.547Z,2.17
2022-12-26T17:12:26.683Z,1.83
2022-12-26T17:14:55.438Z,2.05
2022-12-26T17:17:22.206Z,2.00
2022-12-26T17:19:54.120Z,2.15
2022-12-26T17:22:27.297Z,3.60
2022-12-26T17:25:17.091Z,2.88
2022-12-26T17:28:06.089Z,2.28
2022-12-26T17:30:33.820Z,2.92
2022-12-26T17:33:16.753Z,2.75
2022-12-26T17:36:44.797Z,2.45
2022-12-26T17:38:36.550Z,2.38
2022-12-26T17:41:06.423Z,3.20
2022-12-26T17:43:37.251Z,2.83
2022-12-26T17:46:05.440Z,2.67
2022-12-26T17:48:32.815Z,2.97
2022-12-26T17:51:05.105Z,2.80
2022-12-26T17:53:33.279Z,3.03
2022-12-26T17:56:03.656Z,2.83
2022-12-26T17:58:31.029Z,3.33
2022-12-26T18:00:59.239Z,3.20
2022-12-26T18:03:26.488Z,2.90
2022-12-26T18:05:56.375Z,3.00
2022-12-26T18:08:32.251Z,2.70
2022-12-26T18:11:01.063Z,3.28
2022-12-26T18:13:28.005Z,3.22
2022-12-26T18:15:56.334Z,2.95
2022-12-26T18:18:29.790Z,2.95
2022-12-26T18:20:56.735Z,2.80
2022-12-26T18:23:23.671Z,2.53
2022-12-26T18:25:54.472Z,2.30
2022-12-26T18:28:21.749Z,2.63
2022-12-26T18:30:48.647Z,2.88
2022-12-26T18:33:15.623Z,2.55
2022-12-26T18:35:45.238Z,2.58
2022-12-26T18:38:19.022Z,3.33
2022-12-26T18:40:48.868Z,2.88
2022-12-26T18:43:15.811Z,2.90
2022-12-26T18:45:44.518Z,2.67
2022-12-26T18:48:16.462Z,2.58
2022-12-26T18:50:43.502Z,2.42
2022-12-26T18:53:10.860Z,2.40
2022-12-26T18:55:38.911Z,2.47
2022-12-26T18:58:06.283Z,2.88
2022-12-26T19:00:33.308Z,2.50
2022-12-26T19:03:00.178Z,2.53
2022-12-26T19:05:31.037Z,2.85
2022-12-26T19:07:58.925Z,2.90
2022-12-26T19:10:29.043Z,2.72
2022-12-26T19:13:04.743Z,5.05
2022-12-26T19:15:33.580Z,3.72
2022-12-26T19:18:00.749Z,3.03
2022-12-26T19:20:28.337Z,2.92
2022-12-26T19:22:56.258Z,2.80
2022-12-26T19:25:25.297Z,2.92
2022-12-26T19:27:52.731Z,3.22
2022-12-26T19:30:21.143Z,3.20
2022-12-26T19:32:48.803Z,3.20
2022-12-26T19:35:16.613Z,3.13
2022-12-26T19:37:43.689Z,3.80
2022-12-26T19:40:11.964Z,2.88
2022-12-26T19:42:39.139Z,2.45
2022-12-26T19:45:07.963Z,2.83
2022-12-26T19:47:35.032Z,3.05
2022-12-26T19:50:02.772Z,2.55
2022-12-26T19:52:29.612Z,2.67
2022-12-26T19:54:56.797Z,2.35
2022-12-26T19:57:23.694Z,2.35
2022-12-26T19:59:51.272Z,2.92
2022-12-26T20:02:18.369Z,2.95
2022-12-26T20:04:45.660Z,3.10
2022-12-26T20:07:12.512Z,2.60
2022-12-26T20:09:39.512Z,2.75
2022-12-26T20:12:06.529Z,2.88
2022-12-26T20:14:33.456Z,2.67
2022-12-26T20:17:06.248Z,2.95
2022-12-26T20:19:34.532Z,2.80
2022-12-26T20:22:01.572Z,3.25
2022-12-26T20:24:28.455Z,3.67
2022-12-26T20:26:55.308Z,3.50
2022-12-26T20:29:22.427Z,3.60
2022-12-26T20:31:49.883Z,3.30
2022-12-26T20:34:17.444Z,3.55
2022-12-26T20:36:44.415Z,3.17
2022-12-26T20:39:14.378Z,3.05
2022-12-26T20:41:41.482Z,3.30
2022-12-26T20:44:08.441Z,4.13
2022-12-26T20:46:35.733Z,3.63
2022-12-26T20:49:04.753Z,3.97
2022-12-26T20:51:37.461Z,3.00
2022-12-26T20:54:07.198Z,4.18
2022-12-26T20:56:35.240Z,2.95
2022-12-26T20:59:03.217Z,3.40
2022-12-26T21:01:30.280Z,2.88
2022-12-26T21:03:58.164Z,3.08
2022-12-26T21:06:28.155Z,3.05
2022-12-26T21:08:56.572Z,3.08
2022-12-26T21:11:26.332Z,2.92
2022-12-26T21:13:56.873Z,3.05
2022-12-26T21:16:25.074Z,2.90
2022-12-26T21:18:52.403Z,2.80
2022-12-26T21:21:26.550Z,2.58
2022-12-26T21:23:59.742Z,2.97
2022-12-26T21:26:27.838Z,2.47
2022-12-26T21:29:00.162Z,2.90
2022-12-26T21:31:28.779Z,3.53
2022-12-26T21:33:57.109Z,3.08
2022-12-26T21:36:24.745Z,3.13
2022-12-26T21:38:55.408Z,3.53
2022-12-26T21:41:22.927Z,3.28
2022-12-26T21:43:50.230Z,3.70
2022-12-26T21:46:19.166Z,4.40
2022-12-26T21:48:50.269Z,3.58
2022-12-26T21:51:19.142Z,3.50
2022-12-26T21:53:46.734Z,3.35
2022-12-26T21:56:15.704Z,3.72
2022-12-26T21:59:02.555Z,3.47
2022-12-26T22:01:30.734Z,3.40
2022-12-26T22:04:16.690Z,3.78
2022-12-26T22:06:43.614Z,3.42
2022-12-26T22:09:11.108Z,3.17
2022-12-26T22:11:56.566Z,3.40
2022-12-26T22:14:23.494Z,3.65
2022-12-26T22:16:57.301Z,2.92
2022-12-26T22:19:24.945Z,3.50
2022-12-26T22:21:55.139Z,2.90
2022-12-26T22:24:22.568Z,3.05
2022-12-26T22:26:49.608Z,2.97
2022-12-26T22:29:16.776Z,2.65
2022-12-26T22:31:43.894Z,3.35
2022-12-26T22:34:13.137Z,3.20
2022-12-26T22:36:40.821Z,2.83
2022-12-26T22:39:08.244Z,2.85
2022-12-26T22:41:35.365Z,2.78
2022-12-26T22:44:02.217Z,2.65
2022-12-26T22:46:29.266Z,2.55
2022-12-26T22:48:56.202Z,2.40
2022-12-26T22:51:25.553Z,3.30
2022-12-26T22:53:57.705Z,3.15
2022-12-26T22:56:24.996Z,3.03
2022-12-26T22:59:03.103Z,3.38
2022-12-26T23:01:30.864Z,2.97
2022-12-26T23:03:59.799Z,3.10
2022-12-26T23:06:32.436Z,3.92
2022-12-26T23:09:02.295Z,3.20
2022-12-26T23:11:35.633Z,3.33
2022-12-26T23:14:05.071Z,3.60
2022-12-26T23:16:51.653Z,4.10
2022-12-26T23:19:44.151Z,3.83
2022-12-26T23:22:11.411Z,3.65
2022-12-26T23:24:38.259Z,3.45
2022-12-26T23:27:26.822Z,3.58
2022-12-26T23:30:13.079Z,3.85
2022-12-26T23:32:42.545Z,4.40
2022-12-26T23:35:10.977Z,3.65
2022-12-26T23:37:39.498Z,4.80
2022-12-26T23:40:08.207Z,3.88
2022-12-26T23:42:35.880Z,3.75
2022-12-26T23:45:02.936Z,3.55
2022-12-26T23:47:30.258Z,3.78
2022-12-26T23:49:57.097Z,3.55
2022-12-26T23:52:29.906Z,3.80
2022-12-26T23:54:58.480Z,3.55
2022-12-26T23:57:25.849Z,3.85
2022-12-26T23:59:52.821Z,3.65
